createdAt,value
2019-02-07T00:01:58.423Z,96.02
2019-02-07T00:04:29.670Z,96.41
2019-02-07T00:07:01.105Z,96.41
2019-02-07T00:09:33.839Z,96.65
2019-02-07T00:12:05.340Z,96.19
2019-02-07T00:14:39.896Z,95.91
2019-02-07T00:17:09.659Z,95.68
2019-02-07T00:19:41.095Z,95.68
2019-02-07T00:22:13.076Z,95.51
2019-02-07T00:24:44.601Z,95.46
2019-02-07T00:27:15.918Z,96.31
2019-02-07T00:29:47.419Z,96.67
2019-02-07T00:32:19.364Z,96.40
2019-02-07T00:34:51.256Z,96.40
2019-02-07T00:37:23.370Z,96.90
2019-02-07T00:39:54.869Z,96.92
2019-02-07T00:42:26.034Z,96.92
2019-02-07T00:44:57.246Z,96.70
2019-02-07T00:47:28.435Z,96.41
2019-02-07T00:49:59.838Z,95.99
2019-02-07T00:52:31.684Z,96.27
2019-02-07T00:55:03.422Z,96.27
2019-02-07T00:57:34.435Z,95.86
2019-02-07T01:00:07.720Z,95.62
2019-02-07T01:02:39.016Z,96.10
2019-02-07T01:05:11.783Z,95.93
2019-02-07T01:07:43.566Z,95.93
2019-02-07T01:10:17.458Z,96.06
2019-02-07T01:12:49.319Z,95.69
2019-02-07T01:15:21.339Z,95.69
2019-02-07T01:17:52.755Z,95.49
2019-02-07T01:20:24.020Z,95.87
2019-02-07T01:22:55.188Z,95.87
2019-02-07T01:25:26.803Z,96.13
2019-02-07T01:27:58.453Z,96.13
2019-02-07T01:30:30.189Z,96.61
2019-02-07T01:33:02.048Z,97.24
2019-02-07T01:35:33.387Z,97.24
2019-02-07T01:38:05.289Z,96.33
2019-02-07T01:40:36.570Z,95.82
2019-02-07T01:43:08.145Z,95.82
2019-02-07T01:45:39.814Z,96.19
2019-02-07T01:48:11.765Z,96.40
2019-02-07T01:50:44.221Z,93.79
2019-02-07T01:53:15.501Z,93.79
2019-02-07T01:55:46.690Z,94.17
2019-02-07T01:58:18.136Z,94.02
2019-02-07T02:00:49.381Z,94.02
2019-02-07T02:03:20.738Z,92.09
2019-02-07T02:05:52.712Z,92.09
2019-02-07T02:08:24.719Z,92.75
2019-02-07T02:10:56.187Z,92.79
2019-02-07T02:13:29.509Z,92.79
2019-02-07T02:16:01.387Z,90.91
2019-02-07T02:18:32.632Z,91.78
2019-02-07T02:21:04.681Z,94.68
2019-02-07T02:23:36.663Z,94.29
2019-02-07T02:26:09.609Z,94.18
2019-02-07T02:28:42.395Z,93.53
2019-02-07T02:31:15.090Z,94.32
2019-02-07T02:33:46.281Z,95.56
2019-02-07T02:36:18.132Z,95.56
2019-02-07T02:38:50.910Z,94.18
2019-02-07T02:41:22.460Z,93.74
2019-02-07T02:43:53.704Z,92.72
2019-02-07T02:46:25.049Z,92.72
2019-02-07T02:48:57.432Z,93.23
2019-02-07T02:51:28.796Z,92.23
2019-02-07T02:54:02.471Z,94.66
2019-02-07T02:56:33.676Z,94.66
2019-02-07T02:59:05.263Z,94.34
2019-02-07T03:01:56.967Z,94.24
2019-02-07T03:04:46.514Z,94.24
2019-02-07T03:07:45.769Z,94.81
2019-02-07T03:10:38.522Z,94.07
2019-02-07T03:13:22.415Z,94.07
2019-02-07T03:16:03.652Z,93.00
2019-02-07T03:18:52.563Z,92.38
2019-02-07T03:21:44.339Z,92.71
2019-02-07T03:24:44.035Z,91.05
2019-02-07T03:27:40.862Z,93.06
2019-02-07T03:30:44.281Z,91.72
2019-02-07T03:33:27.097Z,93.40
2019-02-07T03:36:05.714Z,93.40
2019-02-07T03:38:51.698Z,94.10
2019-02-07T03:41:37.287Z,94.38
2019-02-07T03:44:27.773Z,92.22
2019-02-07T03:47:24.046Z,92.22
2019-02-07T03:50:17.377Z,93.12
2019-02-07T03:53:15.857Z,93.12
2019-02-07T03:56:01.226Z,91.30
2019-02-07T03:58:50.146Z,92.89
2019-02-07T04:01:59.744Z,92.59
2019-02-07T04:04:50.342Z,90.96
2019-02-07T04:07:40.814Z,90.68
2019-02-07T04:10:21.006Z,91.29
2019-02-07T04:13:15.376Z,91.29
2019-02-07T04:16:14.772Z,92.08
2019-02-07T04:19:08.032Z,91.89
2019-02-07T04:21:57.199Z,92.42
2019-02-07T04:24:47.804Z,92.42
2019-02-07T04:27:35.842Z,92.78
2019-02-07T04:30:29.242Z,92.44
2019-02-07T04:33:16.701Z,92.02
2019-02-07T04:36:22.131Z,92.02
2019-02-07T04:39:18.580Z,93.17
2019-02-07T04:42:02.296Z,93.04
2019-02-07T04:44:55.309Z,93.04
2019-02-07T04:47:42.018Z,93.54
2019-02-07T04:50:31.180Z,93.54
2019-02-07T04:53:20.148Z,92.62
2019-02-07T04:56:05.126Z,92.01
2019-02-07T04:58:53.550Z,93.16
2019-02-07T05:01:45.117Z,93.72
2019-02-07T05:04:42.131Z,93.40
2019-02-07T05:07:33.340Z,92.99
2019-02-07T05:10:23.036Z,92.99
2019-02-07T05:13:14.949Z,93.06
2019-02-07T05:16:17.561Z,93.03
2019-02-07T05:19:11.012Z,92.74
2019-02-07T05:22:00.368Z,91.37
2019-02-07T05:24:50.854Z,92.41
2019-02-07T05:27:35.087Z,92.91
2019-02-07T05:30:32.771Z,92.97
2019-02-07T05:33:30.031Z,92.43
2019-02-07T05:36:26.107Z,91.84
2019-02-07T05:39:24.632Z,91.17
2019-02-07T05:42:07.011Z,91.17
2019-02-07T05:45:06.626Z,90.71
2019-02-07T05:47:49.676Z,90.78
2019-02-07T05:50:42.628Z,90.78
2019-02-07T05:53:23.644Z,89.91
2019-02-07T05:56:07.239Z,89.91
2019-02-07T05:58:59.236Z,89.69
2019-02-07T06:01:48.721Z,89.57
2019-02-07T06:04:42.215Z,89.13
2019-02-07T06:07:35.684Z,89.33
2019-02-07T06:10:28.015Z,88.87
2019-02-07T06:13:21.072Z,88.40
2019-02-07T06:16:04.190Z,88.40
2019-02-07T06:18:54.992Z,88.16
2019-02-07T06:21:34.109Z,88.07
2019-02-07T06:24:27.590Z,88.07
2019-02-07T06:27:19.521Z,87.77
2019-02-07T06:30:00.418Z,87.30
2019-02-07T06:32:49.041Z,87.37
2019-02-07T06:35:39.537Z,87.37
2019-02-07T06:38:28.091Z,86.62
2019-02-07T06:41:17.565Z,86.40
2019-02-07T06:44:14.518Z,85.55
2019-02-07T06:46:55.743Z,85.55
2019-02-07T06:49:55.212Z,85.63
2019-02-07T06:52:38.026Z,84.82
2019-02-07T06:55:28.925Z,84.82
2019-02-07T06:58:28.607Z,84.89
2019-02-07T07:01:25.069Z,84.46
2019-02-07T07:04:19.918Z,84.73
2019-02-07T07:07:19.304Z,84.82
2019-02-07T07:10:12.800Z,85.01
2019-02-07T07:12:55.992Z,84.21
2019-02-07T07:15:41.063Z,84.21
2019-02-07T07:18:34.372Z,83.00
2019-02-07T07:21:36.878Z,83.00
2019-02-07T07:24:46.210Z,83.99
2019-02-07T07:27:36.397Z,83.64
2019-02-07T07:30:48.493Z,83.64
2019-02-07T07:33:33.225Z,82.89
2019-02-07T07:36:30.652Z,82.89
2019-02-07T07:39:26.651Z,82.86
2019-02-07T07:42:15.616Z,82.41
2019-02-07T07:45:09.206Z,82.26
2019-02-07T07:47:59.281Z,83.01
2019-02-07T07:50:49.661Z,82.09
2019-02-07T07:53:58.268Z,82.09
2019-02-07T07:56:51.629Z,81.06
2019-02-07T07:59:40.909Z,80.69
2019-02-07T08:02:29.872Z,80.69
2019-02-07T08:05:19.753Z,79.78
2019-02-07T08:08:16.390Z,80.35
2019-02-07T08:10:57.151Z,79.23
2019-02-07T08:13:36.794Z,80.15
2019-02-07T08:16:37.119Z,80.87
2019-02-07T08:19:33.154Z,80.63
2019-02-07T08:22:26.724Z,80.63
2019-02-07T08:25:19.572Z,80.66
2019-02-07T08:28:13.254Z,79.85
2019-02-07T08:31:01.798Z,79.88
2019-02-07T08:33:52.191Z,79.88
2019-02-07T08:37:11.863Z,80.49
2019-02-07T08:40:02.366Z,80.49
2019-02-07T08:42:59.946Z,80.32
2019-02-07T08:45:50.126Z,80.32
2019-02-07T08:48:41.639Z,80.87
2019-02-07T08:51:49.906Z,80.87
2019-02-07T08:54:43.418Z,78.74
2019-02-07T08:57:28.799Z,78.85
2019-02-07T09:00:18.976Z,79.46
2019-02-07T09:03:21.152Z,79.58
2019-02-07T09:06:20.765Z,79.58
2019-02-07T09:09:09.723Z,79.83
2019-02-07T09:12:04.535Z,80.37
2019-02-07T09:14:57.780Z,80.37
2019-02-07T09:17:56.684Z,79.55
2019-02-07T09:20:50.561Z,79.47
2019-02-07T09:23:41.494Z,78.96
2019-02-07T09:26:32.170Z,78.21
2019-02-07T09:29:31.678Z,77.91
2019-02-07T09:32:19.465Z,77.94
2019-02-07T09:35:16.443Z,78.32
2019-02-07T09:38:12.572Z,78.91
2019-02-07T09:41:01.735Z,77.93
2019-02-07T09:43:52.264Z,78.00
2019-02-07T09:46:51.522Z,78.00
2019-02-07T09:49:43.286Z,78.43
2019-02-07T09:52:23.945Z,77.95
2019-02-07T09:55:13.398Z,78.24
2019-02-07T09:58:04.518Z,78.44
2019-02-07T10:00:54.773Z,77.31
2019-02-07T10:03:54.637Z,77.31
2019-02-07T10:06:46.645Z,77.88
2019-02-07T10:09:35.045Z,78.56
2019-02-07T10:12:44.537Z,78.34
2019-02-07T10:15:37.840Z,78.34
2019-02-07T10:18:33.090Z,77.24
2019-02-07T10:21:17.772Z,77.24
2019-02-07T10:23:56.754Z,77.74
2019-02-07T10:26:55.700Z,77.74
2019-02-07T10:29:46.393Z,77.67
2019-02-07T10:32:35.580Z,77.67
2019-02-07T10:35:28.053Z,77.83
2019-02-07T10:38:17.371Z,77.63
2019-02-07T10:41:11.145Z,77.44
2019-02-07T10:43:59.904Z,78.78
2019-02-07T10:46:48.862Z,78.78
2019-02-07T10:49:43.045Z,79.21
2019-02-07T10:52:36.713Z,78.95
2019-02-07T10:55:19.482Z,79.23
2019-02-07T10:58:15.541Z,81.18
2019-02-07T11:01:03.081Z,81.18
2019-02-07T11:03:53.267Z,80.66
2019-02-07T11:06:42.333Z,80.41
2019-02-07T11:09:51.157Z,79.67
2019-02-07T11:12:44.116Z,80.23
2019-02-07T11:15:34.592Z,80.23
2019-02-07T11:18:23.995Z,80.67
2019-02-07T11:21:29.523Z,81.04
2019-02-07T11:24:25.460Z,80.49
2019-02-07T11:27:15.467Z,80.49
2019-02-07T11:30:13.919Z,82.25
2019-02-07T11:32:51.812Z,82.25
2019-02-07T11:35:42.002Z,82.63
2019-02-07T11:38:33.817Z,82.63
2019-02-07T11:41:22.157Z,82.98
2019-02-07T11:44:10.919Z,82.98
2019-02-07T11:47:05.326Z,82.97
2019-02-07T11:49:51.917Z,83.62
2019-02-07T11:52:41.803Z,83.62
2019-02-07T11:55:35.289Z,83.93
2019-02-07T11:58:24.039Z,83.93
2019-02-07T12:01:20.147Z,84.35
2019-02-07T12:04:22.933Z,84.87
2019-02-07T12:07:25.223Z,85.49
2019-02-07T12:10:14.065Z,85.22
2019-02-07T12:12:53.842Z,85.73
2019-02-07T12:15:41.021Z,86.03
2019-02-07T12:18:30.712Z,85.79
2019-02-07T12:21:09.954Z,85.58
2019-02-07T12:23:53.370Z,85.60
2019-02-07T12:26:44.272Z,85.60
2019-02-07T12:29:35.375Z,85.75
2019-02-07T12:32:26.381Z,85.87
2019-02-07T12:35:06.454Z,85.85
2019-02-07T12:37:55.508Z,86.05
2019-02-07T12:40:46.107Z,86.57
2019-02-07T12:43:35.479Z,86.46
2019-02-07T12:46:25.970Z,86.46
2019-02-07T12:49:14.839Z,86.32
2019-02-07T12:52:01.853Z,86.28
2019-02-07T12:55:02.480Z,86.28
2019-02-07T12:57:51.344Z,86.50
2019-02-07T13:00:40.307Z,86.50
2019-02-07T13:03:30.596Z,87.75
2019-02-07T13:06:33.284Z,89.49
2019-02-07T13:09:21.105Z,89.49
2019-02-07T13:12:20.419Z,91.00
2019-02-07T13:15:02.111Z,90.10
2019-02-07T13:17:52.081Z,90.10
2019-02-07T13:20:48.268Z,90.07
2019-02-07T13:23:37.515Z,89.43
2019-02-07T13:26:26.760Z,89.92
2019-02-07T13:29:16.335Z,89.92
2019-02-07T13:32:05.554Z,89.25
2019-02-07T13:35:07.138Z,89.60
2019-02-07T13:38:12.297Z,89.60
2019-02-07T13:41:06.887Z,89.78
2019-02-07T13:43:59.825Z,88.78
2019-02-07T13:46:49.099Z,88.91
2019-02-07T13:49:33.666Z,88.80
2019-02-07T13:52:22.615Z,88.44
2019-02-07T13:55:21.822Z,89.36
2019-02-07T13:58:09.239Z,88.53
2019-02-07T14:00:59.930Z,89.60
2019-02-07T14:03:53.107Z,89.60
2019-02-07T14:06:52.817Z,88.85
2019-02-07T14:09:49.069Z,88.90
2019-02-07T14:12:49.083Z,88.58
2019-02-07T14:15:39.472Z,88.65
2019-02-07T14:18:29.945Z,88.65
2019-02-07T14:21:26.362Z,88.83
2019-02-07T14:24:14.889Z,88.95
2019-02-07T14:27:02.147Z,88.68
2019-02-07T14:30:11.105Z,88.26
2019-02-07T14:33:04.873Z,87.48
2019-02-07T14:35:53.625Z,87.48
2019-02-07T14:38:58.865Z,87.79
2019-02-07T14:41:49.055Z,88.63
2019-02-07T14:44:29.106Z,88.58
2019-02-07T14:47:00.620Z,88.61
2019-02-07T14:49:31.830Z,89.06
2019-02-07T14:52:03.457Z,88.50
2019-02-07T14:54:34.945Z,88.90
2019-02-07T14:57:06.687Z,89.74
2019-02-07T14:59:38.240Z,89.29
2019-02-07T15:02:09.788Z,88.28
2019-02-07T15:04:41.545Z,88.60
2019-02-07T15:07:13.031Z,88.87
2019-02-07T15:09:44.484Z,88.39
2019-02-07T15:12:16.172Z,88.22
2019-02-07T15:14:47.391Z,88.22
2019-02-07T15:17:18.982Z,87.42
2019-02-07T15:19:50.388Z,87.42
2019-02-07T15:22:21.529Z,87.21
2019-02-07T15:24:52.844Z,85.87
2019-02-07T15:27:24.090Z,84.92
2019-02-07T15:29:55.714Z,80.51
2019-02-07T15:32:26.872Z,80.51
2019-02-07T15:34:58.232Z,76.05
2019-02-07T15:37:29.626Z,76.05
2019-02-07T15:40:01.001Z,74.92
2019-02-07T15:42:33.712Z,69.52
2019-02-07T15:45:06.906Z,69.52
2019-02-07T15:47:38.305Z,67.68
2019-02-07T15:50:15.804Z,66.71
2019-02-07T15:52:52.239Z,67.02
2019-02-07T15:55:23.824Z,67.12
2019-02-07T15:57:55.244Z,64.95
2019-02-07T16:00:44.038Z,64.95
2019-02-07T16:03:34.931Z,64.00
2019-02-07T16:06:06.764Z,61.99
2019-02-07T16:08:38.333Z,61.09
2019-02-07T16:11:10.095Z,60.66
2019-02-07T16:13:41.236Z,60.85
2019-02-07T16:16:12.795Z,60.85
2019-02-07T16:18:44.245Z,61.28
2019-02-07T16:21:15.479Z,61.17
2019-02-07T16:23:46.696Z,61.17
2019-02-07T16:26:18.093Z,60.18
2019-02-07T16:28:49.534Z,61.09
2019-02-07T16:31:20.922Z,61.05
2019-02-07T16:33:52.259Z,61.56
2019-02-07T16:36:23.783Z,61.56
2019-02-07T16:38:55.429Z,60.32
2019-02-07T16:41:27.098Z,60.32
2019-02-07T16:43:58.464Z,59.01
2019-02-07T16:46:29.613Z,59.01
2019-02-07T16:49:01.079Z,59.82
2019-02-07T16:51:33.093Z,60.41
2019-02-07T16:54:03.932Z,61.56
2019-02-07T16:56:35.530Z,63.21
2019-02-07T16:59:07.387Z,64.25
2019-02-07T17:01:38.899Z,63.86
2019-02-07T17:04:10.745Z,63.86
2019-02-07T17:06:42.108Z,63.92
2019-02-07T17:09:20.080Z,63.92
2019-02-07T17:11:51.782Z,64.79
2019-02-07T17:14:23.393Z,66.18
2019-02-07T17:16:54.819Z,66.18
2019-02-07T17:19:26.025Z,66.37
2019-02-07T17:21:57.252Z,66.37
2019-02-07T17:24:28.958Z,67.40
2019-02-07T17:27:00.595Z,67.00
2019-02-07T17:29:32.321Z,67.00
2019-02-07T17:32:04.455Z,67.35
2019-02-07T17:34:35.859Z,67.35
2019-02-07T17:37:07.380Z,66.55
2019-02-07T17:39:39.472Z,66.41
2019-02-07T17:42:11.095Z,67.52
2019-02-07T17:44:42.840Z,67.52
2019-02-07T17:47:14.430Z,68.70
2019-02-07T17:49:46.210Z,68.70
2019-02-07T17:52:17.607Z,68.15
2019-02-07T17:54:49.436Z,68.15
2019-02-07T17:57:21.189Z,67.47
2019-02-07T17:59:52.812Z,68.09
2019-02-07T18:02:24.064Z,68.09
2019-02-07T18:04:55.476Z,68.94
2019-02-07T18:07:27.070Z,68.13
2019-02-07T18:09:58.795Z,69.62
2019-02-07T18:12:30.407Z,69.62
2019-02-07T18:15:01.558Z,70.49
2019-02-07T18:17:33.338Z,70.49
2019-02-07T18:20:05.021Z,71.12
2019-02-07T18:22:36.204Z,72.21
2019-02-07T18:25:08.764Z,72.21
2019-02-07T18:27:41.901Z,72.43
2019-02-07T18:30:16.498Z,72.43
2019-02-07T18:32:48.179Z,71.79
2019-02-07T18:35:22.412Z,71.79
2019-02-07T18:37:53.939Z,72.07
2019-02-07T18:40:26.451Z,72.10
2019-02-07T18:42:57.887Z,71.63
2019-02-07T18:45:29.334Z,72.03
2019-02-07T18:48:00.599Z,71.28
2019-02-07T18:50:36.385Z,70.34
2019-02-07T18:53:08.191Z,69.68
2019-02-07T18:55:40.415Z,68.33
2019-02-07T18:58:11.748Z,68.50
2019-02-07T19:00:43.812Z,69.64
2019-02-07T19:03:15.194Z,69.64
2019-02-07T19:05:46.642Z,68.79
2019-02-07T19:08:18.313Z,68.79
2019-02-07T19:10:49.718Z,68.34
2019-02-07T19:13:21.304Z,68.34
2019-02-07T19:15:59.122Z,67.60
2019-02-07T19:18:30.960Z,67.60
2019-02-07T19:21:02.563Z,67.46
2019-02-07T19:23:34.321Z,66.85
2019-02-07T19:26:06.104Z,66.45
2019-02-07T19:28:37.252Z,66.45
2019-02-07T19:31:08.734Z,67.15
2019-02-07T19:33:40.353Z,67.78
2019-02-07T19:36:12.255Z,68.14
2019-02-07T19:38:44.017Z,69.61
2019-02-07T19:41:16.008Z,71.28
2019-02-07T19:43:47.363Z,71.03
2019-02-07T19:46:18.680Z,71.03
2019-02-07T19:48:50.070Z,72.51
2019-02-07T19:51:21.731Z,72.51
2019-02-07T19:53:53.231Z,72.83
2019-02-07T19:56:24.779Z,73.02
2019-02-07T19:58:56.191Z,72.68
2019-02-07T20:01:27.575Z,72.58
2019-02-07T20:03:59.018Z,72.61
2019-02-07T20:06:30.774Z,72.61
2019-02-07T20:09:02.059Z,73.49
2019-02-07T20:11:35.337Z,73.72
2019-02-07T20:14:07.424Z,73.86
2019-02-07T20:16:38.893Z,74.39
2019-02-07T20:19:10.357Z,74.32
2019-02-07T20:21:41.881Z,73.42
2019-02-07T20:24:13.383Z,73.42
2019-02-07T20:26:45.339Z,72.88
2019-02-07T20:29:16.700Z,72.96
2019-02-07T20:31:48.230Z,72.47
2019-02-07T20:34:19.961Z,72.47
2019-02-07T20:36:51.649Z,72.19
2019-02-07T20:39:23.369Z,71.93
2019-02-07T20:41:55.156Z,72.33
2019-02-07T20:44:28.478Z,72.33
2019-02-07T20:46:59.834Z,71.98
2019-02-07T20:49:31.275Z,72.11
2019-02-07T20:52:04.980Z,71.90
2019-02-07T20:54:37.735Z,72.14
2019-02-07T20:57:09.130Z,72.14
2019-02-07T20:59:41.358Z,72.41
2019-02-07T21:02:13.685Z,72.03
2019-02-07T21:04:45.043Z,70.92
2019-02-07T21:07:16.378Z,70.98
2019-02-07T21:09:48.000Z,70.12
2019-02-07T21:12:20.910Z,70.12
2019-02-07T21:14:52.230Z,68.57
2019-02-07T21:17:23.414Z,68.57
2019-02-07T21:19:55.014Z,67.60
2019-02-07T21:22:26.477Z,68.54
2019-02-07T21:24:57.827Z,68.54
2019-02-07T21:27:28.996Z,67.75
2019-02-07T21:30:00.704Z,67.67
2019-02-07T21:32:32.924Z,68.16
2019-02-07T21:35:05.112Z,68.03
2019-02-07T21:37:37.508Z,70.60
2019-02-07T21:40:09.500Z,70.39
2019-02-07T21:42:40.722Z,70.39
2019-02-07T21:45:13.251Z,69.47
2019-02-07T21:47:44.653Z,68.22
2019-02-07T21:50:27.881Z,68.22
2019-02-07T21:53:00.152Z,68.43
2019-02-07T21:55:32.055Z,68.04
2019-02-07T21:58:03.750Z,68.09
2019-02-07T22:00:37.230Z,67.81
2019-02-07T22:03:10.883Z,68.03
2019-02-07T22:05:43.720Z,68.03
2019-02-07T22:08:14.941Z,68.61
2019-02-07T22:10:46.530Z,68.61
2019-02-07T22:13:17.803Z,67.97
2019-02-07T22:15:49.450Z,67.47
2019-02-07T22:18:20.710Z,67.23
2019-02-07T22:20:52.052Z,67.77
2019-02-07T22:23:23.218Z,67.77
2019-02-07T22:25:55.127Z,68.04
2019-02-07T22:28:26.499Z,68.78
2019-02-07T22:30:58.134Z,68.55
2019-02-07T22:33:29.822Z,69.09
2019-02-07T22:36:01.408Z,69.41
2019-02-07T22:38:33.094Z,69.41
2019-02-07T22:41:04.313Z,68.99
2019-02-07T22:43:35.758Z,68.99
2019-02-07T22:46:07.146Z,69.78
2019-02-07T22:48:38.538Z,69.77
2019-02-07T22:51:09.855Z,69.83
2019-02-07T22:53:41.694Z,69.98
2019-02-07T22:56:12.935Z,69.98
2019-02-07T22:58:44.439Z,69.30
2019-02-07T23:01:54.337Z,70.29
2019-02-07T23:04:26.909Z,69.89
2019-02-07T23:06:58.359Z,70.47
2019-02-07T23:09:29.800Z,70.59
2019-02-07T23:12:01.211Z,70.59
2019-02-07T23:14:32.522Z,70.84
2019-02-07T23:17:05.577Z,70.49
2019-02-07T23:19:36.846Z,70.37
2019-02-07T23:22:08.303Z,70.84
2019-02-07T23:24:39.944Z,70.84
2019-02-07T23:27:11.544Z,70.88
2019-02-07T23:29:42.659Z,71.36
2019-02-07T23:32:14.164Z,71.36
2019-02-07T23:34:45.374Z,71.78
2019-02-07T23:37:17.051Z,71.78
2019-02-07T23:39:48.690Z,71.50
2019-02-07T23:42:20.389Z,71.65
2019-02-07T23:44:51.586Z,71.49
2019-02-07T23:47:22.934Z,71.79
2019-02-07T23:49:54.739Z,72.15
2019-02-07T23:52:26.295Z,72.15
2019-02-07T23:54:57.560Z,72.22
2019-02-07T23:57:29.117Z,72.23
